Time;durP1;ratioP1;P1;durP2;ratioP2;P2;SDS_P1;SDS_P2;PMS_P1;PMS_P2;Temp;Humidity;BMP_temperature;BMP_pressure;BME280_temperature;BME280_humidity;BME280_pressure;Samples;Min_cycle;Max_cycle;Signal;HPM_P1;HPM_P2
2022/06/16 00:00:43;;;;;;;4.32;2.40;;;18.20;86.70;;;;;;5029412;28;20359;-69
2022/06/16 00:03:10;;;;;;;3.58;2.63;;;16.90;95.40;;;;;;5028905;28;20028;-69
2022/06/16 00:05:38;;;;;;;3.45;2.03;;;16.90;86.70;;;;;;5029416;28;20076;-69
2022/06/16 00:08:06;;;;;;;5.63;2.72;;;17.00;87.10;;;;;;5028311;28;20756;-69
2022/06/16 00:10:32;;;;;;;3.83;2.30;;;16.90;95.60;;;;;;5029015;28;20117;-69
2022/06/16 00:12:58;;;;;;;4.93;2.33;;;16.80;95.30;;;;;;5028817;28;20538;-69
2022/06/16 00:15:27;;;;;;;8.70;2.00;;;16.80;86.90;;;;;;5029078;28;20093;-69
2022/06/16 00:17:53;;;;;;;3.80;2.10;;;16.90;95.50;;;;;;5028935;28;20120;-69
2022/06/16 00:20:19;;;;;;;4.05;1.95;;;16.70;95.20;;;;;;5029057;28;20433;-69
2022/06/16 00:22:45;;;;;;;4.10;2.63;;;16.80;87.00;;;;;;5028446;28;20068;-69
2022/06/16 00:25:11;;;;;;;4.82;2.47;;;16.80;95.30;;;;;;5028632;28;20037;-69
2022/06/16 00:27:39;;;;;;;3.30;2.65;;;16.70;87.40;;;;;;5031462;28;20132;-69
2022/06/16 00:30:06;;;;;;;3.90;2.47;;;16.60;87.50;;;;;;5032287;28;20048;-69
2022/06/16 00:32:31;;;;;;;3.78;2.13;;;16.60;96.10;;;;;;5032573;28;20037;-68
2022/06/16 00:34:57;;;;;;;3.88;2.55;;;16.60;87.60;;;;;;5032448;28;20379;-69
2022/06/16 00:37:23;;;;;;;3.35;2.38;;;16.50;96.00;;;;;;5031997;28;20092;-69
2022/06/16 00:39:48;;;;;;;3.72;2.58;;;16.40;87.70;;;;;;5031909;28;20034;-69
2022/06/16 00:42:22;;;;;;;4.63;2.42;;;16.20;95.70;;;;;;5032076;28;20478;-68
2022/06/16 00:44:52;;;;;;;5.20;2.63;;;16.30;88.90;;;;;;5032535;28;20072;-68
2022/06/16 00:47:20;;;;;;;4.10;2.17;;;15.80;96.20;;;;;;5032370;28;20459;-68
2022/06/16 00:49:47;;;;;;;4.95;2.45;;;16.10;96.00;;;;;;5032188;28;20009;-68
2022/06/16 00:52:17;;;;;;;5.07;2.15;;;16.10;96.00;;;;;;5031424;28;20433;-68
2022/06/16 00:54:51;;;;;;;4.82;2.75;;;15.80;96.10;;;;;;5030821;28;20616;-68
2022/06/16 00:57:23;;;;;;;4.10;2.30;;;16.00;96.40;;;;;;5032032;28;20505;-69
2022/06/16 00:59:49;;;;;;;4.38;2.60;;;16.00;88.50;;;;;;5032020;28;20079;-68
2022/06/16 01:02:15;;;;;;;4.22;2.53;;;15.90;96.40;;;;;;5031987;28;20021;-68
2022/06/16 01:04:53;;;;;;;5.75;2.60;;;16.10;96.40;;;;;;5030615;28;20498;-68
2022/06/16 01:07:24;;;;;;;6.13;2.20;;;15.60;96.30;;;;;;5031449;28;20891;-68
2022/06/16 01:09:51;;;;;;;2.83;2.05;;;;;;;;;;5031512;28;20040;-68
2022/06/16 01:15:35;;;;;;;4.97;2.58;;;15.70;96.70;;;;;;5031426;28;20085;-68
2022/06/16 01:18:31;;;;;;;3.72;2.63;;;15.50;96.60;;;;;;5031469;28;20046;-68
2022/06/16 01:21:02;;;;;;;3.53;2.35;;;15.60;96.70;;;;;;5030951;28;20018;-68
2022/06/16 01:23:43;;;;;;;5.53;2.95;;;15.40;96.70;;;;;;5030174;28;20080;-68
2022/06/16 01:26:41;;;;;;;5.15;2.40;;;15.60;96.80;;;;;;5031197;28;20052;-68
2022/06/16 01:29:37;;;;;;;4.45;2.40;;;15.30;96.40;;;;;;5031016;28;20024;-69
2022/06/16 01:32:33;;;;;;;3.97;2.50;;;15.20;96.90;;;;;;5022377;28;20034;-68
2022/06/16 01:34:59;;;;;;;5.53;2.83;;;;;;;;;;4947414;29;20058;-68
2022/06/16 01:37:36;;;;;;;5.10;2.00;;;15.20;90.30;;;;;;4955775;28;20050;-68
2022/06/16 01:40:12;;;;;;;2.95;2.47;;;15.30;97.00;;;;;;4955577;28;20046;-69
2022/06/16 01:43:06;;;;;;;4.53;2.35;;;15.10;97.10;;;;;;4956165;28;20038;-69
2022/06/16 01:45:43;;;;;;;4.82;2.40;;;15.00;97.20;;;;;;4958037;28;20168;-68
2022/06/16 01:48:11;;;;;;;6.13;2.88;;;15.10;90.60;;;;;;4955476;28;20071;-68
2022/06/16 01:50:44;;;;;;;4.35;1.98;;;15.10;90.70;;;;;;4957393;28;20042;-69
2022/06/16 01:53:15;;;;;;;5.93;2.95;;;14.80;92.10;;;;;;4957347;28;20047;-68
2022/06/16 01:55:48;;;;;;;6.90;2.83;;;15.00;97.60;;;;;;4955908;28;20023;-68
2022/06/16 01:58:20;;;;;;;6.43;3.75;;;14.90;90.90;;;;;;4949938;28;20137;-68
2022/06/16 02:00:46;;;;;;;3.13;2.47;;;14.90;97.80;;;;;;4957347;28;20381;-68
2022/06/16 02:03:24;;;;;;;8.15;3.60;;;14.50;94.40;;;;;;4958514;28;20019;-68
2022/06/16 02:06:01;;;;;;;4.40;3.13;;;14.80;90.60;;;;;;4948300;28;20081;-68
2022/06/16 02:08:35;;;;;;;6.63;3.95;;;14.70;90.70;;;;;;4950668;29;20034;-69
2022/06/16 02:11:21;;;;;;;;;;;14.60;92.30;;;;;;4959854;28;20052;-68
2022/06/16 02:14:06;;;;;;;5.35;3.17;;;14.50;91.90;;;;;;5026229;28;20014;-68
2022/06/16 02:16:34;;;;;;;4.28;3.00;;;14.60;94.10;;;;;;5030201;28;20034;-69
2022/06/16 02:19:02;;;;;;;6.38;2.78;;;14.40;92.00;;;;;;5028679;28;20029;-69
2022/06/16 02:21:40;;;;;;;6.00;2.97;;;14.50;96.10;;;;;;5028769;28;20548;-69
2022/06/16 02:24:08;;;;;;;4.15;3.22;;;14.40;92.20;;;;;;5027863;28;20076;-69
2022/06/16 02:26:34;;;;;;;5.63;3.10;;;14.30;98.60;;;;;;5028750;28;20425;-69
2022/06/16 02:29:19;;;;;;;5.55;2.70;;;14.50;92.60;;;;;;5028208;28;20036;-69
2022/06/16 02:31:44;;;;;;;;;;;14.40;92.90;;;;;;5029063;28;20017;-69
2022/06/16 02:34:24;;;;;;;4.80;2.72;;;14.30;99.00;;;;;;5027580;28;19920;-69
2022/06/16 02:37:02;;;;;;;7.40;2.65;;;14.30;99.10;;;;;;5029644;28;20021;-68
2022/06/16 02:39:46;;;;;;;5.03;3.30;;;13.90;99.10;;;;;;5030278;28;20036;-68
2022/06/16 02:42:35;;;;;;;;;;;14.40;92.50;;;;;;5030119;28;20029;-68
2022/06/16 02:45:22;;;;;;;4.45;3.95;;;14.20;96.50;;;;;;5016356;28;20433;-68
2022/06/16 02:48:10;;;;;;;4.22;3.35;;;14.00;99.40;;;;;;5029343;28;20030;-68
2022/06/16 02:50:52;;;;;;;4.10;3.35;;;14.00;99.50;;;;;;5029757;28;20491;-68
2022/06/16 02:54:02;;;;;;;6.05;2.75;;;14.00;99.60;;;;;;5029620;28;20029;-68
2022/06/16 02:56:45;;;;;;;4.22;2.53;;;13.60;99.60;;;;;;5029938;28;20101;-68
2022/06/16 02:59:17;;;;;;;7.35;2.75;;;14.00;92.80;;;;;;5029560;28;20071;-68
2022/06/16 03:01:42;;;;;;;5.95;3.42;;;14.10;99.60;;;;;;5029449;28;20028;-70
2022/06/16 03:04:11;;;;;;;5.53;2.88;;;14.00;99.70;;;;;;5029091;28;20030;-68
2022/06/16 03:06:37;;;;;;;3.60;2.85;;;14.00;96.80;;;;;;5029721;28;20112;-68
2022/06/16 03:09:04;;;;;;;6.07;2.65;;;13.90;99.80;;;;;;5029443;28;20104;-68
2022/06/16 03:11:31;;;;;;;4.40;2.72;;;13.80;99.90;;;;;;5030005;28;20032;-69
2022/06/16 03:13:57;;;;;;;3.58;2.70;;;13.80;99.80;;;;;;5029309;28;20018;-68
2022/06/16 03:16:23;;;;;;;5.35;2.83;;;13.80;98.50;;;;;;5029079;28;20370;-68
2022/06/16 03:18:49;;;;;;;5.45;2.72;;;13.80;93.10;;;;;;5029316;28;20044;-68
2022/06/16 03:21:15;;;;;;;2.95;2.45;;;;;;;;;;5029561;28;20501;-68
2022/06/16 03:23:41;;;;;;;3.78;2.20;;;13.80;99.90;;;;;;5029642;28;20076;-68
2022/06/16 03:26:06;;;;;;;4.53;2.88;;;13.90;99.90;;;;;;5028979;28;20478;-68
2022/06/16 03:28:32;;;;;;;4.30;2.67;;;13.60;99.90;;;;;;5029528;28;20037;-68
2022/06/16 03:30:58;;;;;;;5.53;2.50;;;13.80;99.90;;;;;;5028654;28;20021;-68
2022/06/16 03:33:24;;;;;;;3.40;2.60;;;;;;;;;;5029745;28;20021;-69
2022/06/16 03:35:49;;;;;;;5.57;2.78;;;13.80;99.90;;;;;;5028044;28;20103;-69
2022/06/16 03:41:01;;;;;;;2.90;2.28;;;13.80;99.90;;;;;;5028780;28;20481;-69
2022/06/16 03:43:26;;;;;;;4.18;2.80;;;13.70;99.90;;;;;;5029622;28;20030;-69
2022/06/16 03:45:52;;;;;;;3.80;2.90;;;13.70;93.90;;;;;;5028554;28;20509;-69
2022/06/16 03:48:18;;;;;;;2.60;2.40;;;13.60;99.90;;;;;;5028977;28;20352;-69
2022/06/16 03:50:43;;;;;;;4.63;2.55;;;;;;;;;;5029505;28;20501;-69
2022/06/16 03:53:09;;;;;;;4.32;2.80;;;13.70;99.90;;;;;;5028986;28;20037;-69
2022/06/16 03:55:35;;;;;;;4.05;2.97;;;13.60;99.90;;;;;;5029328;28;20029;-69
2022/06/16 03:58:00;;;;;;;7.30;3.28;;;13.60;99.90;;;;;;5028672;28;20535;-69
2022/06/16 04:00:26;;;;;;;4.57;2.72;;;13.70;99.90;;;;;;5028847;28;20084;-69
2022/06/16 04:03:59;;;;;;;4.35;2.63;;;13.60;99.90;;;;;;5031820;28;20037;-69
2022/06/16 04:05:39;;;;;;;3.20;2.83;;;13.70;99.90;;;;;;5033024;28;20030;-68
2022/06/16 04:08:05;;;;;;;4.47;2.85;;;;;;;;;;5032541;28;20041;-68
2022/06/16 04:10:31;;;;;;;6.00;3.10;;;13.60;99.90;;;;;;5033110;28;20029;-69
2022/06/16 04:12:57;;;;;;;5.25;3.40;;;;;;;;;;5032917;28;20028;-68
2022/06/16 04:15:22;;;;;;;7.78;4.05;;;13.50;99.90;;;;;;5032250;28;20367;-68
2022/06/16 04:17:48;;;;;;;7.22;3.50;;;;;;;;;;5032771;28;20490;-68
2022/06/16 04:20:14;;;;;;;6.63;3.28;;;13.60;99.90;;;;;;5032715;28;20359;-68
2022/06/16 04:22:41;;;;;;;3.75;3.05;;;13.50;94.40;;;;;;5032476;28;20489;-69
2022/06/16 04:25:12;;;;;;;6.10;3.38;;;13.60;99.90;;;;;;5032122;28;20109;-69
2022/06/16 04:27:38;;;;;;;5.85;3.40;;;;;;;;;;5032669;28;20079;-69
2022/06/16 04:30:04;;;;;;;3.83;3.40;;;13.50;99.90;;;;;;5031862;28;20061;-69
2022/06/16 04:32:30;;;;;;;6.10;3.00;;;13.40;99.90;;;;;;5032659;28;20040;-69
2022/06/16 04:34:55;;;;;;;6.13;3.13;;;13.50;99.90;;;;;;5030107;28;20026;-69
2022/06/16 04:37:21;;;;;;;6.68;3.10;;;;;;;;;;5029724;28;20038;-69
2022/06/16 04:39:47;;;;;;;7.43;3.30;;;13.60;99.90;;;;;;5031554;28;20061;-68
2022/06/16 04:42:12;;;;;;;5.53;3.85;;;13.60;99.90;;;;;;5031525;28;20080;-67
2022/06/16 04:44:40;;;;;;;6.72;3.25;;;13.60;99.90;;;;;;5031941;28;20030;-70
2022/06/16 04:47:06;;;;;;;4.20;3.50;;;13.70;99.90;;;;;;5031566;28;20040;-70
2022/06/16 04:49:32;;;;;;;7.15;3.30;;;13.80;99.90;;;;;;5032378;28;20029;-71
2022/06/16 04:51:58;;;;;;;6.97;3.10;;;13.90;99.90;;;;;;5032166;28;20065;-70
2022/06/16 04:54:24;;;;;;;3.92;3.03;;;;;;;;;;5032375;28;20122;-70
2022/06/16 04:56:50;;;;;;;5.32;2.97;;;14.10;99.90;;;;;;5031930;28;20386;-70
2022/06/16 04:59:16;;;;;;;3.05;2.75;;;;;;;;;;5031301;28;20095;-71
2022/06/16 05:01:42;;;;;;;6.28;2.03;;;14.10;99.90;;;;;;5032291;28;20029;-69
2022/06/16 05:04:08;;;;;;;6.07;3.42;;;;;;;;;;5031347;28;20025;-69
2022/06/16 05:06:34;;;;;;;7.03;3.22;;;14.10;99.90;;;;;;5032125;28;20021;-69
2022/06/16 05:09:00;;;;;;;5.00;2.95;;;;;;;;;;5029867;28;20033;-68
2022/06/16 05:11:25;;;;;;;4.20;3.42;;;14.30;99.90;;;;;;5031817;28;20048;-69
2022/06/16 05:13:51;;;;;;;7.10;3.30;;;14.30;99.90;;;;;;5030609;28;20144;-69
2022/06/16 05:16:16;;;;;;;9.05;2.80;;;14.50;99.90;;;;;;5031623;28;20033;-69
2022/06/16 05:18:42;;;;;;;4.88;2.85;;;14.30;99.90;;;;;;5030294;28;20048;-68
2022/06/16 05:21:14;;;;;;;5.80;2.80;;;14.40;95.40;;;;;;5030345;28;20041;-69
2022/06/16 05:23:40;;;;;;;6.07;2.85;;;14.50;99.90;;;;;;5023507;28;20085;-69
2022/06/16 05:26:08;;;;;;;6.43;2.65;;;14.70;99.90;;;;;;5029593;28;20029;-69
2022/06/16 05:28:35;;;;;;;4.07;2.40;;;15.10;99.90;;;;;;5024071;28;20078;-69
2022/06/16 05:31:00;;;;;;;5.03;2.63;;;14.80;99.90;;;;;;5023599;28;20033;-68
2022/06/16 05:33:26;;;;;;;4.25;2.00;;;14.90;99.90;;;;;;5029100;28;20030;-68
2022/06/16 05:36:07;;;;;;;6.95;2.38;;;15.00;97.10;;;;;;5030624;28;20463;-69
2022/06/16 05:38:33;;;;;;;4.63;2.78;;;15.20;99.90;;;;;;5030221;28;20034;-69
2022/06/16 05:41:04;;;;;;;7.25;1.95;;;15.20;94.00;;;;;;5030025;28;20018;-69
2022/06/16 05:43:30;;;;;;;4.43;2.35;;;15.20;99.90;;;;;;5030844;28;20518;-70
2022/06/16 05:45:56;;;;;;;5.82;3.05;;;15.40;99.90;;;;;;5031058;28;20048;-70
2022/06/16 05:48:22;;;;;;;2.22;1.83;;;15.50;99.90;;;;;;5030911;28;20060;-69
2022/06/16 05:50:48;;;;;;;4.07;1.85;;;15.60;99.90;;;;;;5029362;28;20033;-69
2022/06/16 05:53:13;;;;;;;5.38;1.95;;;15.70;99.90;;;;;;5030834;28;20041;-69
2022/06/16 05:55:39;;;;;;;2.95;1.98;;;15.80;99.90;;;;;;5030647;28;20025;-69
2022/06/16 05:58:05;;;;;;;3.28;1.92;;;15.50;99.90;;;;;;5030548;28;20044;-69
2022/06/16 06:00:31;;;;;;;3.33;1.75;;;15.60;99.90;;;;;;5030802;28;20391;-69
2022/06/16 06:02:58;;;;;;;5.38;1.60;;;15.70;99.70;;;;;;5030423;28;20030;-70
2022/06/16 06:05:24;;;;;;;5.03;1.38;;;15.80;92.70;;;;;;5030551;28;20497;-70
2022/06/16 06:18:48;;;;;;;3.42;1.10;;;16.50;99.00;;;;;;5030445;28;20047;-69
2022/06/16 06:21:14;;;;;;;3.33;1.00;;;16.40;98.80;;;;;;5030493;28;20382;-70
2022/06/16 06:23:39;;;;;;;3.45;1.60;;;16.50;98.60;;;;;;5030086;28;20053;-69
2022/06/16 06:26:05;;;;;;;2.88;1.33;;;16.70;98.50;;;;;;5028943;28;20045;-69
2022/06/16 06:28:31;;;;;;;1.98;1.10;;;16.60;98.70;;;;;;5030628;28;20096;-70
2022/06/16 06:30:56;;;;;;;2.55;1.27;;;16.60;91.70;;;;;;5030212;28;20071;-69
2022/06/16 06:33:22;;;;;;;2.28;0.90;;;16.60;91.60;;;;;;5029881;28;20479;-69
2022/06/16 06:35:47;;;;;;;4.88;1.20;;;16.70;91.40;;;;;;5030333;28;20036;-69
2022/06/16 06:38:14;;;;;;;1.10;1.00;;;16.70;91.20;;;;;;5029693;28;20041;-70
2022/06/16 06:40:40;;;;;;;3.30;0.82;;;16.90;91.20;;;;;;5029074;28;20030;-70
2022/06/16 06:43:06;;;;;;;3.72;0.98;;;16.60;97.30;;;;;;5029400;28;20017;-69
2022/06/16 06:45:32;;;;;;;4.32;1.13;;;17.00;97.10;;;;;;5028335;28;20053;-69
2022/06/16 06:47:58;;;;;;;5.65;1.00;;;16.80;97.30;;;;;;5029738;28;20025;-69
2022/06/16 06:50:28;;;;;;;3.75;1.08;;;16.80;90.20;;;;;;5029742;28;20022;-70
2022/06/16 06:52:54;;;;;;;1.92;0.90;;;17.10;96.70;;;;;;5029636;28;20025;-69
2022/06/16 06:55:20;;;;;;;3.65;1.40;;;16.90;96.60;;;;;;5028968;28;20445;-70
2022/06/16 06:57:47;;;;;;;2.67;1.08;;;17.10;89.50;;;;;;5029710;28;20120;-70
2022/06/16 07:00:18;;;;;;;2.88;0.73;;;17.20;89.10;;;;;;5029043;28;20049;-69
2022/06/16 07:02:44;;;;;;;1.77;0.80;;;17.30;88.50;;;;;;5029890;28;20025;-69
2022/06/16 07:05:10;;;;;;;3.40;1.08;;;17.40;96.40;;;;;;5029305;28;20038;-69
2022/06/16 07:07:36;;;;;;;3.78;1.17;;;17.40;88.30;;;;;;5030311;28;20022;-69
2022/06/16 07:10:04;;;;;;;1.58;0.70;;;17.50;88.40;;;;;;5028831;28;20030;-68
2022/06/16 07:12:30;;;;;;;1.70;0.60;;;17.60;88.10;;;;;;5029554;28;20101;-71
2022/06/16 07:14:55;;;;;;;2.47;0.82;;;17.70;87.10;;;;;;5029348;28;20045;-69
2022/06/16 07:17:23;;;;;;;5.00;1.08;;;17.80;86.00;;;;;;5028214;28;20056;-69
2022/06/16 07:19:50;;;;;;;1.40;0.60;;;17.80;86.20;;;;;;5027729;28;20029;-68
2022/06/16 07:22:15;;;;;;;1.23;0.70;;;17.90;85.70;;;;;;5028988;28;20079;-69
2022/06/16 07:24:41;;;;;;;2.80;0.77;;;17.90;85.40;;;;;;5029027;28;20067;-69
2022/06/16 07:27:08;;;;;;;1.90;0.82;;;18.10;85.60;;;;;;5029043;28;20383;-69
2022/06/16 07:29:34;;;;;;;1.85;1.00;;;18.20;84.80;;;;;;5029313;28;20034;-69
2022/06/16 07:31:59;;;;;;;1.58;0.57;;;18.30;84.80;;;;;;5028648;28;20033;-69
2022/06/16 07:34:26;;;;;;;2.67;1.20;;;18.40;84.10;;;;;;5028834;28;20104;-70
2022/06/16 07:36:52;;;;;;;1.05;0.50;;;18.50;83.80;;;;;;5031852;28;20014;-69
2022/06/16 07:39:18;;;;;;;4.82;0.68;;;18.80;83.30;;;;;;5031775;28;20548;-69
2022/06/16 07:41:43;;;;;;;0.88;0.45;;;18.70;82.80;;;;;;5033005;28;20029;-69
2022/06/16 07:44:12;;;;;;;2.03;0.73;;;18.80;82.00;;;;;;5032810;28;20045;-70
2022/06/16 07:46:39;;;;;;;2.10;1.23;;;18.80;81.90;;;;;;5033458;28;20032;-70
2022/06/16 07:49:10;;;;;;;4.88;1.00;;;19.00;81.10;;;;;;5032922;28;20490;-70
2022/06/16 07:51:35;;;;;;;1.20;0.65;;;19.00;78.20;;;;;;5032771;28;20339;-69
2022/06/16 07:54:01;;;;;;;4.35;0.80;;;19.00;79.60;;;;;;5032242;28;20096;-71
2022/06/16 07:56:26;;;;;;;3.05;0.70;;;19.00;79.70;;;;;;5029899;28;20036;-72
2022/06/16 07:58:52;;;;;;;1.85;1.00;;;19.30;79.30;;;;;;5032213;28;20135;-69
2022/06/16 08:01:18;;;;;;;2.33;0.82;;;19.40;79.00;;;;;;5032460;28;20421;-70
2022/06/16 08:03:44;;;;;;;1.05;0.60;;;19.40;79.00;;;;;;5032242;28;20037;-69
2022/06/16 08:06:15;;;;;;;2.85;1.08;;;19.50;78.30;;;;;;5031802;28;20026;-71
2022/06/16 08:08:43;;;;;;;3.90;0.85;;;19.60;78.80;;;;;;5033055;28;20087;-71
2022/06/16 08:13:55;;;;;;;1.23;0.90;;;19.70;78.20;;;;;;5018674;28;20057;-70
2022/06/16 08:16:20;;;;;;;3.92;1.00;;;19.80;78.80;;;;;;5032433;28;20508;-69
2022/06/16 08:18:46;;;;;;;2.88;0.80;;;20.00;77.90;;;;;;5031959;28;20072;-70
2022/06/16 08:21:11;;;;;;;2.65;1.08;;;20.10;77.60;;;;;;5031696;28;20467;-70
2022/06/16 08:23:38;;;;;;;3.72;0.80;;;20.00;77.30;;;;;;5032676;28;20065;-70
2022/06/16 08:26:04;;;;;;;3.85;1.30;;;20.00;77.30;;;;;;5031961;28;20026;-70
2022/06/16 08:28:32;;;;;;;2.50;1.33;;;20.00;77.40;;;;;;5032285;28;20128;-70
2022/06/16 08:30:57;;;;;;;2.85;1.25;;;20.10;77.30;;;;;;5032054;28;20028;-70
2022/06/16 08:33:23;;;;;;;3.50;1.45;;;21.50;77.60;;;;;;5031513;28;20441;-70
2022/06/16 08:35:49;;;;;;;2.88;1.20;;;20.20;76.80;;;;;;5029667;28;20025;-70
2022/06/16 08:38:14;;;;;;;2.55;1.17;;;20.20;76.80;;;;;;5031006;28;20037;-73
2022/06/16 08:40:44;;;;;;;2.85;1.20;;;20.30;76.50;;;;;;5030277;28;20032;-71
2022/06/16 08:43:31;;;;;;;2.38;1.08;;;20.40;77.30;;;;;;5031506;28;20120;-73
2022/06/16 08:46:03;;;;;;;3.03;1.45;;;20.30;77.70;;;;;;5031529;28;20020;-70
2022/06/16 08:48:58;;;;;;;3.20;1.20;;;20.50;77.10;;;;;;5029100;28;20026;-71
2022/06/16 08:52:17;;;;;;;3.13;1.48;;;20.60;75.30;;;;;;5031106;28;20665;-69
2022/06/16 08:54:49;;;;;;;2.28;1.00;;;20.60;74.70;;;;;;5006606;28;20038;-70
2022/06/16 08:57:28;;;;;;;2.38;1.00;;;20.60;76.00;;;;;;5029107;28;20052;-70
2022/06/16 09:00:10;;;;;;;3.30;1.30;;;20.50;75.80;;;;;;5019661;28;20104;-70
2022/06/16 09:02:47;;;;;;;3.28;1.02;;;20.60;75.60;;;;;;5031454;28;20024;-71
2022/06/16 09:05:38;;;;;;;3.33;1.40;;;20.60;76.00;;;;;;5030451;28;20553;-70
2022/06/16 09:08:18;;;;;;;1.60;1.00;;;20.60;90.30;;;;;;5031038;28;20088;-70
2022/06/16 09:10:54;;;;;;;3.03;1.35;;;20.60;75.60;;;;;;5031492;28;20079;-70
2022/06/16 09:13:25;;;;;;;4.32;1.20;;;20.70;75.30;;;;;;5031287;28;20129;-70
2022/06/16 09:16:02;;;;;;;1.83;0.90;;;20.70;74.30;;;;;;5031358;28;20052;-71
2022/06/16 09:18:48;;;;;;;2.17;0.88;;;20.80;73.30;;;;;;5029134;28;20045;-70
2022/06/16 09:21:46;;;;;;;2.55;1.25;;;20.80;73.60;;;;;;5027193;28;20060;-72
2022/06/16 09:24:43;;;;;;;4.60;1.45;;;21.00;73.90;;;;;;5013228;28;20041;-70
2022/06/16 09:27:24;;;;;;;2.78;1.35;;;20.80;73.40;;;;;;5029966;28;20026;-71
2022/06/16 09:29:58;;;;;;;3.15;1.17;;;20.90;75.40;;;;;;5030887;28;20394;-71
2022/06/16 09:32:52;;;;;;;1.95;0.98;;;21.00;72.80;;;;;;5031112;28;20014;-71
2022/06/16 09:35:27;;;;;;;3.33;1.33;;;21.00;72.70;;;;;;5023448;28;20079;-73
2022/06/16 09:38:10;;;;;;;2.50;0.95;;;21.20;74.70;;;;;;5030000;28;20529;-71
2022/06/16 09:40:51;;;;;;;4.03;1.30;;;21.30;74.90;;;;;;5034450;28;20022;-70
2022/06/16 09:43:19;;;;;;;3.70;1.02;;;21.80;73.20;;;;;;5025026;28;20069;-71
2022/06/16 09:46:00;;;;;;;2.50;1.15;;;21.40;74.80;;;;;;5030791;28;20018;-70
2022/06/16 09:49:07;;;;;;;2.88;1.20;;;22.70;75.10;;;;;;5029996;28;20041;-70
2022/06/16 09:51:44;;;;;;;2.40;1.27;;;21.60;72.70;;;;;;4987107;28;20027;-70
2022/06/16 09:54:16;;;;;;;2.88;1.33;;;21.50;73.60;;;;;;4988530;28;20058;-70
2022/06/16 09:56:53;;;;;;;2.65;1.60;;;21.60;70.80;;;;;;4988852;28;20058;-70
2022/06/16 09:59:25;;;;;;;2.55;1.33;;;21.60;74.00;;;;;;4988668;28;20038;-71
2022/06/16 10:02:21;;;;;;;1.35;1.00;;;21.60;71.20;;;;;;4988761;28;20046;-70
2022/06/16 10:04:51;;;;;;;4.75;1.52;;;21.70;72.30;;;;;;4983479;28;20125;-70
2022/06/16 10:07:41;;;;;;;3.47;0.73;;;21.70;73.70;;;;;;4988443;28;20031;-69
2022/06/16 10:10:39;;;;;;;1.73;0.98;;;21.80;72.00;;;;;;4988561;28;20023;-70
2022/06/16 10:13:45;;;;;;;2.53;1.25;;;21.90;71.70;;;;;;4984535;28;20057;-70
2022/06/16 10:16:19;;;;;;;3.30;1.83;;;21.80;71.40;;;;;;4976183;28;20045;-69
2022/06/16 10:18:46;;;;;;;3.83;1.25;;;21.50;70.90;;;;;;4988337;28;20507;-69
2022/06/16 10:21:15;;;;;;;5.20;1.90;;;21.70;72.50;;;;;;4988029;28;20030;-69
2022/06/16 10:23:46;;;;;;;4.43;1.30;;;21.70;72.60;;;;;;4988777;28;20157;-69
2022/06/16 10:26:11;;;;;;;2.42;1.15;;;21.80;73.40;;;;;;4994526;28;20029;-69
2022/06/16 10:29:03;;;;;;;1.42;1.00;;;22.00;72.90;;;;;;5016891;28;20033;-69
2022/06/16 10:31:36;;;;;;;5.15;1.67;;;22.40;71.70;;;;;;5018175;28;20152;-69
2022/06/16 10:34:04;;;;;;;2.50;1.60;;;22.10;72.20;;;;;;5029872;28;20025;-69
2022/06/16 10:36:30;;;;;;;5.75;1.40;;;22.20;71.90;;;;;;5029996;28;20052;-69
2022/06/16 10:39:22;;;;;;;2.67;1.20;;;22.20;71.60;;;;;;5029420;28;20034;-69
2022/06/16 10:42:18;;;;;;;4.10;1.75;;;22.20;70.00;;;;;;5029493;28;20481;-69
2022/06/16 10:45:05;;;;;;;5.28;1.85;;;22.60;70.40;;;;;;5029676;28;20045;-69
2022/06/16 10:47:41;;;;;;;2.95;1.15;;;22.20;71.90;;;;;;5029193;28;20068;-69
2022/06/16 10:50:15;;;;;;;4.78;1.25;;;22.30;69.60;;;;;;5028983;28;20060;-69
2022/06/16 10:52:49;;;;;;;3.90;1.52;;;22.30;71.20;;;;;;5030010;28;20030;-69
2022/06/16 10:55:21;;;;;;;3.10;1.17;;;22.90;71.50;;;;;;5029176;28;20040;-68
2022/06/16 10:58:04;;;;;;;3.05;1.50;;;22.40;71.00;;;;;;5030183;28;20033;-68
2022/06/16 11:00:33;;;;;;;3.00;1.08;;;22.40;68.80;;;;;;5029791;28;20032;-69
2022/06/16 11:03:04;;;;;;;2.53;1.50;;;23.40;70.90;;;;;;5025977;28;20118;-69
2022/06/16 11:05:33;;;;;;;3.95;1.20;;;22.40;68.80;;;;;;5024474;28;20029;-68
2022/06/16 11:08:11;;;;;;;1.48;0.88;;;22.80;71.20;;;;;;5027495;28;20338;-69
2022/06/16 11:10:40;;;;;;;3.83;1.30;;;22.50;71.80;;;;;;5036773;28;20053;-70
2022/06/16 11:13:13;;;;;;;1.83;1.05;;;22.50;71.40;;;;;;5028559;28;20052;-70
2022/06/16 11:15:40;;;;;;;0.90;0.60;;;23.60;71.30;;;;;;5024387;28;20763;-70
2022/06/16 11:18:12;;;;;;;2.70;1.23;;;22.50;71.80;;;;;;5028494;28;20033;-70
2022/06/16 11:20:42;;;;;;;3.53;1.13;;;22.50;71.20;;;;;;5029332;28;20387;-70
2022/06/16 11:23:24;;;;;;;3.72;1.50;;;23.30;71.70;;;;;;5031852;28;20163;-70
2022/06/16 11:26:20;;;;;;;2.33;1.20;;;22.70;69.50;;;;;;5025421;28;20107;-70
2022/06/16 11:29:13;;;;;;;2.58;1.08;;;22.90;69.70;;;;;;5028217;28;20026;-70
2022/06/16 11:31:46;;;;;;;2.10;1.13;;;22.90;71.00;;;;;;5022729;28;20043;-70
2022/06/16 11:34:20;;;;;;;4.30;1.30;;;23.00;67.80;;;;;;5028716;28;20055;-70
2022/06/16 11:37:04;;;;;;;1.90;1.13;;;22.90;68.00;;;;;;5028984;28;20033;-70
2022/06/16 11:39:36;;;;;;;2.00;1.05;;;22.80;67.40;;;;;;5025925;28;20515;-70
2022/06/16 11:42:02;;;;;;;3.42;1.15;;;22.90;68.10;;;;;;5027422;28;20024;-70
2022/06/16 11:44:58;;;;;;;3.60;1.35;;;22.80;69.50;;;;;;5027150;28;20049;-70
2022/06/16 11:47:35;;;;;;;1.40;1.00;;;22.90;67.90;;;;;;5028017;28;20091;-70
2022/06/16 11:50:38;;;;;;;3.08;1.27;;;23.20;69.90;;;;;;5015227;28;20389;-70
2022/06/16 11:53:28;;;;;;;2.15;1.30;;;23.00;68.10;;;;;;5023309;28;20967;-70
2022/06/16 11:56:01;;;;;;;3.58;1.45;;;23.00;67.80;;;;;;5023590;28;20033;-71
2022/06/16 11:58:54;;;;;;;3.00;1.10;;;23.00;69.60;;;;;;5026590;28;20048;-71
2022/06/16 12:01:28;;;;;;;3.13;1.40;;;23.20;68.00;;;;;;5026497;28;20042;-71
2022/06/16 12:04:28;;;;;;;3.40;0.98;;;23.30;68.90;;;;;;5028519;28;20017;-71
2022/06/16 12:07:03;;;;;;;3.28;1.08;;;23.40;67.00;;;;;;5016830;28;20402;-71
2022/06/16 12:09:58;;;;;;;3.53;1.13;;;23.60;66.70;;;;;;5028998;28;20025;-71
2022/06/16 12:12:40;;;;;;;2.13;0.95;;;23.90;66.60;;;;;;5025302;28;20494;-71
2022/06/16 12:15:14;;;;;;;2.55;1.40;;;23.70;68.20;;;;;;5027570;28;20394;-71
2022/06/16 12:17:48;;;;;;;2.03;1.30;;;24.70;67.20;;;;;;5027084;28;20025;-71
2022/06/16 12:20:36;;;;;;;3.80;1.15;;;24.10;68.20;;;;;;5028621;28;20022;-70
2022/06/16 12:23:11;;;;;;;2.03;1.17;;;23.80;66.10;;;;;;5017635;28;20049;-70
2022/06/16 12:26:12;;;;;;;1.88;1.00;;;24.10;67.80;;;;;;5032314;28;20029;-70
2022/06/16 12:28:52;;;;;;;2.67;0.93;;;24.10;67.90;;;;;;5031628;28;20432;-71
2022/06/16 12:31:41;;;;;;;2.83;1.20;;;24.40;66.20;;;;;;5032023;28;20467;-70
2022/06/16 12:34:33;;;;;;;2.90;1.15;;;24.30;65.80;;;;;;5031648;28;20029;-71
2022/06/16 12:37:11;;;;;;;3.85;1.30;;;24.30;65.60;;;;;;5031688;28;20021;-71
2022/06/16 12:39:54;;;;;;;3.42;1.10;;;24.30;65.40;;;;;;5034381;28;20065;-71
2022/06/16 12:42:23;;;;;;;;;;;24.40;64.90;;;;;;5039100;28;20036;-71
2022/06/16 12:45:11;;;;;;;1.38;1.02;;;24.20;67.30;;;;;;5030568;28;20370;-71
2022/06/16 12:47:53;;;;;;;2.35;1.20;;;24.30;66.70;;;;;;5030987;28;20493;-71
2022/06/16 12:50:41;;;;;;;2.00;1.20;;;24.40;64.40;;;;;;5031408;28;20052;-72
2022/06/16 12:53:22;;;;;;;2.08;0.90;;;24.40;66.30;;;;;;5038827;28;20033;-71
2022/06/16 12:55:56;;;;;;;2.50;1.10;;;24.60;66.40;;;;;;5029134;28;20021;-71
2022/06/16 12:58:32;;;;;;;3.72;1.60;;;24.80;65.30;;;;;;5030717;28;20044;-71
2022/06/16 13:01:02;;;;;;;1.33;1.10;;;24.90;65.20;;;;;;5040691;28;20030;-71
2022/06/16 13:03:38;;;;;;;2.38;1.38;;;25.90;64.80;;;;;;5030099;28;20123;-71
2022/06/16 13:06:05;;;;;;;2.72;1.13;;;25.10;62.90;;;;;;5046718;28;20025;-71
2022/06/16 13:08:35;;;;;;;1.48;1.20;;;25.00;64.40;;;;;;5031254;28;20026;-71
2022/06/16 13:11:04;;;;;;;178.10;66.38;;;26.90;65.70;;;;;;5029964;28;20091;-71
2022/06/16 13:13:53;;;;;;;5.60;4.03;;;25.50;64.40;;;;;;5029889;28;20041;-71
2022/06/16 13:16:23;;;;;;;2.25;1.88;;;25.90;64.60;;;;;;5029646;28;20498;-71
2022/06/16 13:18:56;;;;;;;2.08;1.50;;;25.40;64.10;;;;;;5030348;28;20088;-71
2022/06/16 13:21:32;;;;;;;3.15;1.33;;;25.80;64.30;;;;;;5030535;28;20029;-71
2022/06/16 13:24:21;;;;;;;2.33;1.10;;;25.80;62.10;;;;;;5030270;28;20502;-71
2022/06/16 13:27:11;;;;;;;2.67;0.98;;;25.90;61.30;;;;;;5025973;28;20022;-71
2022/06/16 13:29:42;;;;;;;1.50;0.98;;;25.90;63.10;;;;;;5018018;28;20038;-71
2022/06/16 13:32:39;;;;;;;2.33;1.30;;;28.80;64.80;;;;;;5016467;28;20482;-71
2022/06/16 13:35:13;;;;;;;4.90;1.55;;;25.90;60.90;;;;;;5028949;28;20025;-71
2022/06/16 13:37:42;;;;;;;3.20;1.20;;;25.70;62.60;;;;;;5028421;28;20045;-71
2022/06/16 13:40:07;;;;;;;2.60;1.77;;;25.40;62.30;;;;;;5016863;28;20021;-70
2022/06/16 13:42:51;;;;;;;2.90;1.42;;;25.40;61.90;;;;;;5018511;28;20033;-71